sensor_id;sensor_type;location;lat;lon;timestamp;P1;durP1;ratioP1;P2;durP2;ratioP2
69629;SDS011;56857;52.212;5.496;2022-10-16T00:01:30;7.28;;;2.65;;
69629;SDS011;56857;52.212;5.496;2022-10-16T00:03:56;7.05;;;3.10;;
69629;SDS011;56857;52.212;5.496;2022-10-16T00:06:23;7.93;;;2.90;;
69629;SDS011;56857;52.212;5.496;2022-10-16T00:08:50;10.98;;;3.50;;
69629;SDS011;56857;52.212;5.496;2022-10-16T00:11:17;6.65;;;3.00;;
69629;SDS011;56857;52.212;5.496;2022-10-16T00:13:47;6.57;;;2.67;;
69629;SDS011;56857;52.212;5.496;2022-10-16T00:16:14;10.98;;;3.20;;
69629;SDS011;56857;52.212;5.496;2022-10-16T00:18:42;9.63;;;3.00;;
69629;SDS011;56857;52.212;5.496;2022-10-16T00:21:08;10.80;;;3.20;;
69629;SDS011;56857;52.212;5.496;2022-10-16T00:23:36;9.38;;;3.42;;
69629;SDS011;56857;52.212;5.496;2022-10-16T00:26:03;8.05;;;2.78;;
69629;SDS011;56857;52.212;5.496;2022-10-16T00:28:30;10.50;;;3.15;;
69629;SDS011;56857;52.212;5.496;2022-10-16T00:30:56;5.63;;;2.80;;
69629;SDS011;56857;52.212;5.496;2022-10-16T00:33:22;9.52;;;3.50;;
69629;SDS011;56857;52.212;5.496;2022-10-16T00:35:47;8.35;;;2.83;;
69629;SDS011;56857;52.212;5.496;2022-10-16T00:38:13;8.30;;;3.10;;
69629;SDS011;56857;52.212;5.496;2022-10-16T00:40:38;8.48;;;3.53;;
69629;SDS011;56857;52.212;5.496;2022-10-16T00:43:09;9.13;;;3.63;;
69629;SDS011;56857;52.212;5.496;2022-10-16T00:45:38;8.23;;;3.50;;
69629;SDS011;56857;52.212;5.496;2022-10-16T00:48:03;6.63;;;3.00;;
69629;SDS011;56857;52.212;5.496;2022-10-16T00:50:32;7.65;;;3.20;;
69629;SDS011;56857;52.212;5.496;2022-10-16T00:53:00;8.57;;;3.00;;
69629;SDS011;56857;52.212;5.496;2022-10-16T00:55:27;9.82;;;3.60;;
69629;SDS011;56857;52.212;5.496;2022-10-16T00:57:52;8.35;;;3.45;;
69629;SDS011;56857;52.212;5.496;2022-10-16T01:00:20;8.25;;;3.38;;
69629;SDS011;56857;52.212;5.496;2022-10-16T01:02:54;6.82;;;3.28;;
69629;SDS011;56857;52.212;5.496;2022-10-16T01:05:22;8.55;;;3.50;;
69629;SDS011;56857;52.212;5.496;2022-10-16T01:07:58;9.82;;;3.78;;
69629;SDS011;56857;52.212;5.496;2022-10-16T01:15:37;8.90;;;3.70;;
69629;SDS011;56857;52.212;5.496;2022-10-16T01:31:17;9.45;;;3.47;;
69629;SDS011;56857;52.212;5.496;2022-10-16T01:33:51;6.30;;;3.53;;
69629;SDS011;56857;52.212;5.496;2022-10-16T01:36:26;6.63;;;3.30;;
69629;SDS011;56857;52.212;5.496;2022-10-16T01:38:59;8.35;;;3.80;;
69629;SDS011;56857;52.212;5.496;2022-10-16T01:41:27;8.00;;;4.28;;
69629;SDS011;56857;52.212;5.496;2022-10-16T01:46:30;9.27;;;5.00;;
69629;SDS011;56857;52.212;5.496;2022-10-16T01:48:56;7.88;;;3.80;;
69629;SDS011;56857;52.212;5.496;2022-10-16T01:51:23;8.90;;;3.85;;
69629;SDS011;56857;52.212;5.496;2022-10-16T01:53:52;8.70;;;4.38;;
69629;SDS011;56857;52.212;5.496;2022-10-16T01:56:20;9.35;;;4.30;;
69629;SDS011;56857;52.212;5.496;2022-10-16T01:58:49;10.82;;;4.68;;
69629;SDS011;56857;52.212;5.496;2022-10-16T02:01:20;7.95;;;3.42;;
69629;SDS011;56857;52.212;5.496;2022-10-16T02:03:48;7.63;;;3.55;;
69629;SDS011;56857;52.212;5.496;2022-10-16T02:06:18;8.82;;;4.15;;
69629;SDS011;56857;52.212;5.496;2022-10-16T02:08:43;7.03;;;4.00;;
69629;SDS011;56857;52.212;5.496;2022-10-16T02:11:09;10.15;;;4.18;;
69629;SDS011;56857;52.212;5.496;2022-10-16T02:13:55;7.00;;;3.65;;
69629;SDS011;56857;52.212;5.496;2022-10-16T02:16:36;12.05;;;4.05;;
69629;SDS011;56857;52.212;5.496;2022-10-16T02:19:04;7.80;;;3.50;;
69629;SDS011;56857;52.212;5.496;2022-10-16T02:21:49;10.45;;;4.47;;
69629;SDS011;56857;52.212;5.496;2022-10-16T02:29:38;9.07;;;3.50;;
69629;SDS011;56857;52.212;5.496;2022-10-16T02:32:10;7.25;;;3.80;;
69629;SDS011;56857;52.212;5.496;2022-10-16T02:34:38;6.40;;;3.60;;
69629;SDS011;56857;52.212;5.496;2022-10-16T02:37:06;8.27;;;4.10;;
69629;SDS011;56857;52.212;5.496;2022-10-16T02:39:32;8.43;;;4.20;;
69629;SDS011;56857;52.212;5.496;2022-10-16T02:41:58;8.23;;;3.70;;
69629;SDS011;56857;52.212;5.496;2022-10-16T02:44:24;10.18;;;4.13;;
69629;SDS011;56857;52.212;5.496;2022-10-16T02:46:49;9.25;;;4.00;;
69629;SDS011;56857;52.212;5.496;2022-10-16T02:49:14;8.90;;;3.28;;
69629;SDS011;56857;52.212;5.496;2022-10-16T02:51:40;6.25;;;3.88;;
69629;SDS011;56857;52.212;5.496;2022-10-16T02:54:05;7.18;;;3.70;;
69629;SDS011;56857;52.212;5.496;2022-10-16T02:56:31;7.63;;;3.67;;
69629;SDS011;56857;52.212;5.496;2022-10-16T02:58:56;8.48;;;3.60;;
69629;SDS011;56857;52.212;5.496;2022-10-16T03:01:22;8.75;;;4.05;;
69629;SDS011;56857;52.212;5.496;2022-10-16T03:03:47;6.63;;;3.80;;
69629;SDS011;56857;52.212;5.496;2022-10-16T03:06:13;7.90;;;4.13;;
69629;SDS011;56857;52.212;5.496;2022-10-16T03:08:38;8.50;;;3.75;;
69629;SDS011;56857;52.212;5.496;2022-10-16T03:11:03;10.48;;;4.40;;
69629;SDS011;56857;52.212;5.496;2022-10-16T03:13:29;9.70;;;3.70;;
69629;SDS011;56857;52.212;5.496;2022-10-16T03:15:54;7.10;;;3.53;;
69629;SDS011;56857;52.212;5.496;2022-10-16T03:18:20;9.98;;;4.20;;
69629;SDS011;56857;52.212;5.496;2022-10-16T03:20:45;9.13;;;4.15;;
69629;SDS011;56857;52.212;5.496;2022-10-16T03:23:11;9.85;;;4.60;;
69629;SDS011;56857;52.212;5.496;2022-10-16T03:25:36;7.53;;;3.70;;
69629;SDS011;56857;52.212;5.496;2022-10-16T03:28:01;7.95;;;4.20;;
69629;SDS011;56857;52.212;5.496;2022-10-16T03:30:27;7.82;;;4.15;;
69629;SDS011;56857;52.212;5.496;2022-10-16T03:32:52;7.55;;;3.70;;
69629;SDS011;56857;52.212;5.496;2022-10-16T03:35:17;8.93;;;3.47;;
69629;SDS011;56857;52.212;5.496;2022-10-16T03:37:43;7.85;;;4.13;;
69629;SDS011;56857;52.212;5.496;2022-10-16T03:40:08;7.10;;;4.28;;
69629;SDS011;56857;52.212;5.496;2022-10-16T03:42:34;6.93;;;3.25;;
69629;SDS011;56857;52.212;5.496;2022-10-16T03:44:59;7.68;;;3.58;;
69629;SDS011;56857;52.212;5.496;2022-10-16T03:47:24;7.90;;;3.75;;
69629;SDS011;56857;52.212;5.496;2022-10-16T03:49:50;8.18;;;4.57;;
69629;SDS011;56857;52.212;5.496;2022-10-16T03:52:15;10.18;;;4.28;;
69629;SDS011;56857;52.212;5.496;2022-10-16T03:54:41;8.43;;;3.70;;
69629;SDS011;56857;52.212;5.496;2022-10-16T03:57:06;10.20;;;3.97;;
69629;SDS011;56857;52.212;5.496;2022-10-16T03:59:31;7.90;;;3.75;;
69629;SDS011;56857;52.212;5.496;2022-10-16T04:01:57;8.65;;;3.60;;
69629;SDS011;56857;52.212;5.496;2022-10-16T04:04:22;9.05;;;3.92;;
69629;SDS011;56857;52.212;5.496;2022-10-16T04:06:48;8.60;;;3.80;;
69629;SDS011;56857;52.212;5.496;2022-10-16T04:09:13;7.10;;;3.60;;
69629;SDS011;56857;52.212;5.496;2022-10-16T04:11:39;7.88;;;4.07;;
69629;SDS011;56857;52.212;5.496;2022-10-16T04:14:04;6.15;;;3.40;;
69629;SDS011;56857;52.212;5.496;2022-10-16T04:16:30;8.68;;;4.22;;
69629;SDS011;56857;52.212;5.496;2022-10-16T04:18:55;8.73;;;3.63;;
69629;SDS011;56857;52.212;5.496;2022-10-16T04:21:20;6.32;;;3.80;;
69629;SDS011;56857;52.212;5.496;2022-10-16T04:23:45;5.57;;;2.80;;
69629;SDS011;56857;52.212;5.496;2022-10-16T04:26:11;5.82;;;2.92;;
69629;SDS011;56857;52.212;5.496;2022-10-16T04:28:36;7.07;;;3.20;;
69629;SDS011;56857;52.212;5.496;2022-10-16T04:31:05;8.65;;;3.40;;
69629;SDS011;56857;52.212;5.496;2022-10-16T04:33:31;8.05;;;3.85;;
69629;SDS011;56857;52.212;5.496;2022-10-16T04:35:57;12.40;;;3.08;;
69629;SDS011;56857;52.212;5.496;2022-10-16T04:38:24;5.80;;;2.95;;
69629;SDS011;56857;52.212;5.496;2022-10-16T04:40:50;8.82;;;3.30;;
69629;SDS011;56857;52.212;5.496;2022-10-16T04:43:15;5.35;;;2.83;;
69629;SDS011;56857;52.212;5.496;2022-10-16T04:45:40;6.55;;;3.67;;
69629;SDS011;56857;52.212;5.496;2022-10-16T04:48:06;8.02;;;2.42;;
69629;SDS011;56857;52.212;5.496;2022-10-16T04:50:31;7.72;;;3.13;;
69629;SDS011;56857;52.212;5.496;2022-10-16T04:52:56;5.65;;;2.80;;
69629;SDS011;56857;52.212;5.496;2022-10-16T04:55:21;7.30;;;2.80;;
69629;SDS011;56857;52.212;5.496;2022-10-16T04:57:47;7.30;;;3.08;;
69629;SDS011;56857;52.212;5.496;2022-10-16T05:00:12;6.20;;;3.45;;
69629;SDS011;56857;52.212;5.496;2022-10-16T05:02:38;6.32;;;3.10;;
69629;SDS011;56857;52.212;5.496;2022-10-16T05:05:03;7.50;;;3.28;;
69629;SDS011;56857;52.212;5.496;2022-10-16T05:07:29;7.15;;;3.17;;
69629;SDS011;56857;52.212;5.496;2022-10-16T05:09:54;6.63;;;2.85;;
69629;SDS011;56857;52.212;5.496;2022-10-16T05:12:19;7.10;;;2.75;;
69629;SDS011;56857;52.212;5.496;2022-10-16T05:14:45;6.32;;;2.85;;
69629;SDS011;56857;52.212;5.496;2022-10-16T05:17:10;8.85;;;3.13;;
69629;SDS011;56857;52.212;5.496;2022-10-16T05:19:35;6.32;;;3.30;;
69629;SDS011;56857;52.212;5.496;2022-10-16T05:22:01;7.35;;;2.58;;
69629;SDS011;56857;52.212;5.496;2022-10-16T05:24:26;5.30;;;2.90;;
69629;SDS011;56857;52.212;5.496;2022-10-16T05:26:52;6.35;;;3.00;;
69629;SDS011;56857;52.212;5.496;2022-10-16T05:29:17;5.28;;;2.60;;
69629;SDS011;56857;52.212;5.496;2022-10-16T05:31:42;6.57;;;2.90;;
69629;SDS011;56857;52.212;5.496;2022-10-16T05:34:08;8.32;;;2.85;;
69629;SDS011;56857;52.212;5.496;2022-10-16T05:36:33;6.07;;;3.00;;
69629;SDS011;56857;52.212;5.496;2022-10-16T05:38:58;8.60;;;2.90;;
69629;SDS011;56857;52.212;5.496;2022-10-16T05:41:23;9.13;;;2.90;;
69629;SDS011;56857;52.212;5.496;2022-10-16T05:43:49;5.55;;;2.55;;
69629;SDS011;56857;52.212;5.496;2022-10-16T05:46:14;7.35;;;3.25;;
69629;SDS011;56857;52.212;5.496;2022-10-16T05:48:40;6.25;;;2.17;;
69629;SDS011;56857;52.212;5.496;2022-10-16T05:51:06;6.80;;;3.00;;
69629;SDS011;56857;52.212;5.496;2022-10-16T05:53:33;6.00;;;2.47;;
69629;SDS011;56857;52.212;5.496;2022-10-16T05:55:59;6.25;;;3.03;;
69629;SDS011;56857;52.212;5.496;2022-10-16T05:58:28;5.43;;;2.80;;
69629;SDS011;56857;52.212;5.496;2022-10-16T06:00:55;4.97;;;2.10;;
69629;SDS011;56857;52.212;5.496;2022-10-16T06:03:22;6.35;;;2.95;;
69629;SDS011;56857;52.212;5.496;2022-10-16T06:05:48;6.97;;;3.00;;
69629;SDS011;56857;52.212;5.496;2022-10-16T06:08:14;6.50;;;3.25;;
69629;SDS011;56857;52.212;5.496;2022-10-16T06:10:39;5.55;;;2.20;;
69629;SDS011;56857;52.212;5.496;2022-10-16T06:13:04;7.72;;;2.95;;
69629;SDS011;56857;52.212;5.496;2022-10-16T06:15:30;10.55;;;3.15;;
69629;SDS011;56857;52.212;5.496;2022-10-16T06:17:55;4.75;;;2.50;;
69629;SDS011;56857;52.212;5.496;2022-10-16T06:20:20;7.50;;;3.15;;
69629;SDS011;56857;52.212;5.496;2022-10-16T06:22:46;6.22;;;2.97;;
69629;SDS011;56857;52.212;5.496;2022-10-16T06:25:11;6.57;;;2.90;;
69629;SDS011;56857;52.212;5.496;2022-10-16T06:27:38;8.55;;;3.30;;
69629;SDS011;56857;52.212;5.496;2022-10-16T06:30:04;11.98;;;3.50;;
69629;SDS011;56857;52.212;5.496;2022-10-16T06:32:30;7.55;;;2.72;;
69629;SDS011;56857;52.212;5.496;2022-10-16T06:34:55;7.85;;;2.97;;
69629;SDS011;56857;52.212;5.496;2022-10-16T06:37:21;8.25;;;3.25;;
69629;SDS011;56857;52.212;5.496;2022-10-16T06:39:46;8.13;;;3.22;;
69629;SDS011;56857;52.212;5.496;2022-10-16T06:42:11;6.57;;;2.72;;
69629;SDS011;56857;52.212;5.496;2022-10-16T06:44:37;9.07;;;3.35;;
69629;SDS011;56857;52.212;5.496;2022-10-16T06:47:02;7.00;;;3.13;;
69629;SDS011;56857;52.212;5.496;2022-10-16T06:49:27;6.57;;;3.45;;
69629;SDS011;56857;52.212;5.496;2022-10-16T06:51:53;6.78;;;3.17;;
69629;SDS011;56857;52.212;5.496;2022-10-16T06:54:18;9.40;;;3.40;;
69629;SDS011;56857;52.212;5.496;2022-10-16T06:56:43;5.88;;;3.20;;
69629;SDS011;56857;52.212;5.496;2022-10-16T06:59:09;7.40;;;3.22;;
69629;SDS011;56857;52.212;5.496;2022-10-16T07:01:34;7.30;;;2.85;;
69629;SDS011;56857;52.212;5.496;2022-10-16T07:04:00;8.80;;;3.20;;
69629;SDS011;56857;52.212;5.496;2022-10-16T07:06:26;7.60;;;3.47;;
69629;SDS011;56857;52.212;5.496;2022-10-16T07:08:52;8.82;;;3.70;;
69629;SDS011;56857;52.212;5.496;2022-10-16T07:11:18;8.63;;;3.20;;
69629;SDS011;56857;52.212;5.496;2022-10-16T07:13:45;5.93;;;2.42;;
69629;SDS011;56857;52.212;5.496;2022-10-16T07:16:13;7.57;;;3.25;;
69629;SDS011;56857;52.212;5.496;2022-10-16T07:18:40;7.45;;;3.10;;
69629;SDS011;56857;52.212;5.496;2022-10-16T07:21:07;4.95;;;2.50;;
69629;SDS011;56857;52.212;5.496;2022-10-16T07:23:35;11.38;;;3.05;;
69629;SDS011;56857;52.212;5.496;2022-10-16T07:26:00;7.30;;;2.67;;
69629;SDS011;56857;52.212;5.496;2022-10-16T07:28:26;8.43;;;2.55;;
69629;SDS011;56857;52.212;5.496;2022-10-16T07:30:51;6.57;;;2.50;;
69629;SDS011;56857;52.212;5.496;2022-10-16T07:33:17;6.40;;;2.70;;
69629;SDS011;56857;52.212;5.496;2022-10-16T07:35:49;6.75;;;2.65;;
69629;SDS011;56857;52.212;5.496;2022-10-16T07:38:16;6.80;;;2.72;;
69629;SDS011;56857;52.212;5.496;2022-10-16T07:40:42;6.47;;;2.95;;
69629;SDS011;56857;52.212;5.496;2022-10-16T07:43:08;5.95;;;2.60;;
69629;SDS011;56857;52.212;5.496;2022-10-16T07:45:33;6.63;;;2.78;;
69629;SDS011;56857;52.212;5.496;2022-10-16T07:47:58;9.15;;;2.80;;
69629;SDS011;56857;52.212;5.496;2022-10-16T07:50:23;6.13;;;2.22;;
69629;SDS011;56857;52.212;5.496;2022-10-16T07:52:50;6.95;;;2.60;;
69629;SDS011;56857;52.212;5.496;2022-10-16T07:55:16;9.43;;;2.60;;
69629;SDS011;56857;52.212;5.496;2022-10-16T07:57:41;7.57;;;2.42;;
69629;SDS011;56857;52.212;5.496;2022-10-16T08:00:07;7.80;;;2.35;;
69629;SDS011;56857;52.212;5.496;2022-10-16T08:02:33;8.70;;;2.38;;
69629;SDS011;56857;52.212;5.496;2022-10-16T08:04:58;5.45;;;2.10;;
69629;SDS011;56857;52.212;5.496;2022-10-16T08:07:23;6.13;;;2.30;;
69629;SDS011;56857;52.212;5.496;2022-10-16T08:09:49;7.90;;;3.05;;
69629;SDS011;56857;52.212;5.496;2022-10-16T08:12:14;9.30;;;2.75;;
69629;SDS011;56857;52.212;5.496;2022-10-16T08:14:40;13.05;;;3.30;;
69629;SDS011;56857;52.212;5.496;2022-10-16T08:17:06;6.72;;;2.30;;
69629;SDS011;56857;52.212;5.496;2022-10-16T08:19:31;5.40;;;2.40;;
69629;SDS011;56857;52.212;5.496;2022-10-16T08:21:56;7.30;;;3.00;;
69629;SDS011;56857;52.212;5.496;2022-10-16T08:24:22;9.43;;;2.75;;
69629;SDS011;56857;52.212;5.496;2022-10-16T08:26:47;8.52;;;3.58;;
69629;SDS011;56857;52.212;5.496;2022-10-16T08:29:13;7.07;;;3.53;;
69629;SDS011;56857;52.212;5.496;2022-10-16T08:31:39;6.82;;;3.45;;
69629;SDS011;56857;52.212;5.496;2022-10-16T08:34:04;8.07;;;3.60;;
69629;SDS011;56857;52.212;5.496;2022-10-16T08:36:30;7.03;;;3.00;;
69629;SDS011;56857;52.212;5.496;2022-10-16T08:38:55;10.68;;;3.53;;
69629;SDS011;56857;52.212;5.496;2022-10-16T08:46:52;8.80;;;3.80;;
69629;SDS011;56857;52.212;5.496;2022-10-16T08:49:22;8.52;;;3.45;;
69629;SDS011;56857;52.212;5.496;2022-10-16T08:51:48;7.57;;;3.28;;
69629;SDS011;56857;52.212;5.496;2022-10-16T08:54:22;10.73;;;3.80;;
69629;SDS011;56857;52.212;5.496;2022-10-16T08:56:55;7.43;;;3.50;;
69629;SDS011;56857;52.212;5.496;2022-10-16T08:59:21;6.53;;;2.75;;
69629;SDS011;56857;52.212;5.496;2022-10-16T09:01:47;9.60;;;3.10;;
69629;SDS011;56857;52.212;5.496;2022-10-16T09:07:02;8.40;;;2.55;;
69629;SDS011;56857;52.212;5.496;2022-10-16T09:19:51;6.78;;;2.95;;
69629;SDS011;56857;52.212;5.496;2022-10-16T09:22:28;8.95;;;3.08;;
69629;SDS011;56857;52.212;5.496;2022-10-16T09:24:59;15.02;;;3.10;;
69629;SDS011;56857;52.212;5.496;2022-10-16T09:27:26;12.48;;;2.75;;
69629;SDS011;56857;52.212;5.496;2022-10-16T09:29:51;12.75;;;2.70;;
69629;SDS011;56857;52.212;5.496;2022-10-16T09:32:19;11.32;;;2.78;;
69629;SDS011;56857;52.212;5.496;2022-10-16T09:34:50;7.20;;;2.97;;
69629;SDS011;56857;52.212;5.496;2022-10-16T09:37:19;8.02;;;2.22;;
69629;SDS011;56857;52.212;5.496;2022-10-16T09:39:47;10.90;;;2.53;;
69629;SDS011;56857;52.212;5.496;2022-10-16T09:42:22;9.77;;;2.50;;
69629;SDS011;56857;52.212;5.496;2022-10-16T09:44:52;10.07;;;2.70;;
69629;SDS011;56857;52.212;5.496;2022-10-16T09:47:28;7.30;;;2.45;;
69629;SDS011;56857;52.212;5.496;2022-10-16T09:52:22;12.05;;;3.03;;
69629;SDS011;56857;52.212;5.496;2022-10-16T09:54:53;6.78;;;2.20;;
69629;SDS011;56857;52.212;5.496;2022-10-16T09:57:19;11.88;;;2.60;;
69629;SDS011;56857;52.212;5.496;2022-10-16T09:59:50;11.18;;;3.15;;
69629;SDS011;56857;52.212;5.496;2022-10-16T10:02:17;8.85;;;2.72;;
69629;SDS011;56857;52.212;5.496;2022-10-16T10:04:51;10.70;;;2.50;;
69629;SDS011;56857;52.212;5.496;2022-10-16T10:07:20;5.97;;;2.28;;
69629;SDS011;56857;52.212;5.496;2022-10-16T10:09:50;9.20;;;2.20;;
69629;SDS011;56857;52.212;5.496;2022-10-16T10:12:23;10.55;;;3.42;;
69629;SDS011;56857;52.212;5.496;2022-10-16T10:15:24;9.90;;;2.47;;
69629;SDS011;56857;52.212;5.496;2022-10-16T10:17:46;12.23;;;2.13;;
69629;SDS011;56857;52.212;5.496;2022-10-16T10:20:26;13.35;;;2.78;;
69629;SDS011;56857;52.212;5.496;2022-10-16T10:22:54;8.98;;;2.17;;
69629;SDS011;56857;52.212;5.496;2022-10-16T10:31:01;10.05;;;3.13;;
69629;SDS011;56857;52.212;5.496;2022-10-16T10:41:25;11.00;;;2.60;;
69629;SDS011;56857;52.212;5.496;2022-10-16T10:46:41;8.20;;;2.53;;
69629;SDS011;56857;52.212;5.496;2022-10-16T10:52:13;9.77;;;3.22;;
69629;SDS011;56857;52.212;5.496;2022-10-16T10:54:54;10.68;;;2.00;;
69629;SDS011;56857;52.212;5.496;2022-10-16T11:00:15;11.60;;;3.28;;
69629;SDS011;56857;52.212;5.496;2022-10-16T11:02:52;11.38;;;2.70;;
69629;SDS011;56857;52.212;5.496;2022-10-16T11:08:10;8.25;;;2.75;;
69629;SDS011;56857;52.212;5.496;2022-10-16T11:15:58;12.05;;;3.15;;
69629;SDS011;56857;52.212;5.496;2022-10-16T11:18:38;11.90;;;2.40;;
69629;SDS011;56857;52.212;5.496;2022-10-16T11:21:12;10.20;;;2.60;;
69629;SDS011;56857;52.212;5.496;2022-10-16T11:26:43;9.48;;;2.50;;
69629;SDS011;56857;52.212;5.496;2022-10-16T11:29:31;13.68;;;2.95;;
69629;SDS011;56857;52.212;5.496;2022-10-16T11:31:58;10.02;;;2.33;;
69629;SDS011;56857;52.212;5.496;2022-10-16T11:34:36;7.90;;;2.58;;
69629;SDS011;56857;52.212;5.496;2022-10-16T11:37:27;9.25;;;2.65;;
69629;SDS011;56857;52.212;5.496;2022-10-16T11:39:59;8.32;;;2.53;;
69629;SDS011;56857;52.212;5.496;2022-10-16T11:42:39;10.13;;;2.40;;
69629;SDS011;56857;52.212;5.496;2022-10-16T11:48:05;10.65;;;3.05;;
69629;SDS011;56857;52.212;5.496;2022-10-16T11:50:42;12.20;;;2.17;;
69629;SDS011;56857;52.212;5.496;2022-10-16T11:56:12;14.65;;;3.05;;
69629;SDS011;56857;52.212;5.496;2022-10-16T12:01:19;14.35;;;2.83;;
69629;SDS011;56857;52.212;5.496;2022-10-16T12:07:05;10.88;;;2.70;;
69629;SDS011;56857;52.212;5.496;2022-10-16T12:09:38;9.88;;;2.47;;
69629;SDS011;56857;52.212;5.496;2022-10-16T12:12:22;9.13;;;2.85;;
69629;SDS011;56857;52.212;5.496;2022-10-16T12:15:01;9.00;;;2.33;;
69629;SDS011;56857;52.212;5.496;2022-10-16T12:17:43;11.07;;;2.47;;
69629;SDS011;56857;52.212;5.496;2022-10-16T12:22:36;11.63;;;2.45;;
69629;SDS011;56857;52.212;5.496;2022-10-16T12:25:02;10.35;;;2.10;;
69629;SDS011;56857;52.212;5.496;2022-10-16T12:27:31;6.82;;;2.20;;
69629;SDS011;56857;52.212;5.496;2022-10-16T12:29:58;7.50;;;2.33;;
69629;SDS011;56857;52.212;5.496;2022-10-16T12:35:00;8.18;;;2.55;;
69629;SDS011;56857;52.212;5.496;2022-10-16T12:37:34;7.22;;;2.20;;
69629;SDS011;56857;52.212;5.496;2022-10-16T12:40:11;12.43;;;2.47;;
69629;SDS011;56857;52.212;5.496;2022-10-16T12:42:39;7.03;;;2.10;;
69629;SDS011;56857;52.212;5.496;2022-10-16T12:48:18;7.20;;;2.10;;
69629;SDS011;56857;52.212;5.496;2022-10-16T12:50:45;9.15;;;2.45;;
69629;SDS011;56857;52.212;5.496;2022-10-16T12:53:18;7.93;;;2.15;;
69629;SDS011;56857;52.212;5.496;2022-10-16T13:01:37;15.07;;;2.30;;
69629;SDS011;56857;52.212;5.496;2022-10-16T13:07:28;9.20;;;2.40;;
69629;SDS011;56857;52.212;5.496;2022-10-16T13:10:02;10.02;;;2.70;;
69629;SDS011;56857;52.212;5.496;2022-10-16T13:29:01;9.85;;;2.13;;
69629;SDS011;56857;52.212;5.496;2022-10-16T13:31:26;9.77;;;2.20;;
69629;SDS011;56857;52.212;5.496;2022-10-16T13:33:54;9.75;;;1.92;;
69629;SDS011;56857;52.212;5.496;2022-10-16T13:36:26;10.23;;;2.22;;
69629;SDS011;56857;52.212;5.496;2022-10-16T13:41:37;11.35;;;2.15;;
69629;SDS011;56857;52.212;5.496;2022-10-16T13:44:02;8.52;;;2.08;;
69629;SDS011;56857;52.212;5.496;2022-10-16T13:46:28;7.53;;;2.30;;
69629;SDS011;56857;52.212;5.496;2022-10-16T13:51:27;8.43;;;2.67;;
69629;SDS011;56857;52.212;5.496;2022-10-16T13:53:54;10.63;;;2.75;;
69629;SDS011;56857;52.212;5.496;2022-10-16T13:56:21;8.25;;;2.38;;
69629;SDS011;56857;52.212;5.496;2022-10-16T13:58:57;11.18;;;2.30;;
69629;SDS011;56857;52.212;5.496;2022-10-16T14:01:30;8.80;;;2.58;;
69629;SDS011;56857;52.212;5.496;2022-10-16T14:04:02;12.40;;;2.30;;
69629;SDS011;56857;52.212;5.496;2022-10-16T14:06:30;10.57;;;2.35;;
69629;SDS011;56857;52.212;5.496;2022-10-16T14:11:34;9.95;;;2.25;;
69629;SDS011;56857;52.212;5.496;2022-10-16T14:14:10;9.13;;;2.22;;
69629;SDS011;56857;52.212;5.496;2022-10-16T14:16:37;10.30;;;2.20;;
69629;SDS011;56857;52.212;5.496;2022-10-16T14:19:13;10.52;;;2.47;;
69629;SDS011;56857;52.212;5.496;2022-10-16T14:21:44;9.18;;;1.88;;
69629;SDS011;56857;52.212;5.496;2022-10-16T14:24:13;9.25;;;2.05;;
69629;SDS011;56857;52.212;5.496;2022-10-16T14:26:47;9.05;;;2.20;;
69629;SDS011;56857;52.212;5.496;2022-10-16T14:29:13;10.23;;;2.20;;
69629;SDS011;56857;52.212;5.496;2022-10-16T14:31:42;10.35;;;2.15;;
69629;SDS011;56857;52.212;5.496;2022-10-16T14:34:30;15.68;;;2.67;;
69629;SDS011;56857;52.212;5.496;2022-10-16T14:36:57;9.48;;;2.30;;
69629;SDS011;56857;52.212;5.496;2022-10-16T14:39:31;8.82;;;1.98;;
69629;SDS011;56857;52.212;5.496;2022-10-16T14:41:56;8.43;;;2.38;;
69629;SDS011;56857;52.212;5.496;2022-10-16T14:44:26;12.27;;;2.15;;
69629;SDS011;56857;52.212;5.496;2022-10-16T14:46:54;10.23;;;2.47;;
69629;SDS011;56857;52.212;5.496;2022-10-16T14:49:20;7.78;;;1.90;;
69629;SDS011;56857;52.212;5.496;2022-10-16T14:51:47;11.38;;;2.50;;
69629;SDS011;56857;52.212;5.496;2022-10-16T14:54:13;11.13;;;2.50;;
69629;SDS011;56857;52.212;5.496;2022-10-16T14:59:09;11.68;;;2.25;;
69629;SDS011;56857;52.212;5.496;2022-10-16T15:01:42;10.18;;;2.10;;
69629;SDS011;56857;52.212;5.496;2022-10-16T15:04:09;11.95;;;2.42;;
69629;SDS011;56857;52.212;5.496;2022-10-16T15:06:37;9.02;;;2.00;;
69629;SDS011;56857;52.212;5.496;2022-10-16T15:09:02;10.40;;;2.53;;
69629;SDS011;56857;52.212;5.496;2022-10-16T15:11:27;10.05;;;2.40;;
69629;SDS011;56857;52.212;5.496;2022-10-16T15:13:53;10.93;;;2.63;;
69629;SDS011;56857;52.212;5.496;2022-10-16T15:16:18;9.52;;;2.70;;
69629;SDS011;56857;52.212;5.496;2022-10-16T15:18:44;14.18;;;2.50;;
69629;SDS011;56857;52.212;5.496;2022-10-16T15:21:29;12.07;;;3.08;;
69629;SDS011;56857;52.212;5.496;2022-10-16T15:23:56;11.02;;;2.65;;
69629;SDS011;56857;52.212;5.496;2022-10-16T15:26:23;12.93;;;2.95;;
69629;SDS011;56857;52.212;5.496;2022-10-16T15:28:50;10.10;;;2.55;;
69629;SDS011;56857;52.212;5.496;2022-10-16T15:31:15;8.95;;;2.30;;
69629;SDS011;56857;52.212;5.496;2022-10-16T15:33:40;9.50;;;2.28;;
69629;SDS011;56857;52.212;5.496;2022-10-16T15:36:06;14.55;;;2.78;;
69629;SDS011;56857;52.212;5.496;2022-10-16T15:38:32;8.77;;;2.28;;
69629;SDS011;56857;52.212;5.496;2022-10-16T15:40:57;13.73;;;2.60;;
69629;SDS011;56857;52.212;5.496;2022-10-16T15:43:22;84.88;;;7.00;;
69629;SDS011;56857;52.212;5.496;2022-10-16T15:47:05;11.38;;;2.10;;
69629;SDS011;56857;52.212;5.496;2022-10-16T15:49:31;8.95;;;1.88;;
69629;SDS011;56857;52.212;5.496;2022-10-16T15:51:56;10.63;;;2.58;;
69629;SDS011;56857;52.212;5.496;2022-10-16T15:54:21;9.93;;;2.33;;
69629;SDS011;56857;52.212;5.496;2022-10-16T15:56:47;10.02;;;2.55;;
69629;SDS011;56857;52.212;5.496;2022-10-16T15:59:12;13.27;;;2.30;;
69629;SDS011;56857;52.212;5.496;2022-10-16T16:01:37;10.20;;;2.30;;
69629;SDS011;56857;52.212;5.496;2022-10-16T16:04:03;10.07;;;2.70;;
69629;SDS011;56857;52.212;5.496;2022-10-16T16:06:28;9.57;;;3.17;;
69629;SDS011;56857;52.212;5.496;2022-10-16T16:08:53;10.32;;;2.40;;
69629;SDS011;56857;52.212;5.496;2022-10-16T16:11:19;11.43;;;2.58;;
69629;SDS011;56857;52.212;5.496;2022-10-16T16:13:45;11.20;;;3.28;;
69629;SDS011;56857;52.212;5.496;2022-10-16T16:16:11;8.10;;;2.80;;
69629;SDS011;56857;52.212;5.496;2022-10-16T16:18:38;13.32;;;2.80;;
69629;SDS011;56857;52.212;5.496;2022-10-16T16:21:05;9.25;;;3.15;;
69629;SDS011;56857;52.212;5.496;2022-10-16T16:23:32;15.02;;;3.35;;
69629;SDS011;56857;52.212;5.496;2022-10-16T16:26:13;13.73;;;3.60;;
69629;SDS011;56857;52.212;5.496;2022-10-16T16:28:41;14.85;;;4.35;;
69629;SDS011;56857;52.212;5.496;2022-10-16T16:31:07;12.70;;;4.03;;
69629;SDS011;56857;52.212;5.496;2022-10-16T16:33:33;14.27;;;4.00;;
69629;SDS011;56857;52.212;5.496;2022-10-16T16:35:59;20.90;;;4.50;;
69629;SDS011;56857;52.212;5.496;2022-10-16T16:38:29;16.20;;;4.88;;
69629;SDS011;56857;52.212;5.496;2022-10-16T16:40:55;14.13;;;6.38;;
69629;SDS011;56857;52.212;5.496;2022-10-16T16:43:24;17.02;;;5.07;;
69629;SDS011;56857;52.212;5.496;2022-10-16T16:45:51;17.65;;;5.55;;
69629;SDS011;56857;52.212;5.496;2022-10-16T16:48:16;13.10;;;4.32;;
69629;SDS011;56857;52.212;5.496;2022-10-16T16:50:41;15.35;;;4.03;;
69629;SDS011;56857;52.212;5.496;2022-10-16T16:53:07;15.70;;;4.65;;
69629;SDS011;56857;52.212;5.496;2022-10-16T16:55:32;14.65;;;4.40;;
69629;SDS011;56857;52.212;5.496;2022-10-16T16:57:58;12.25;;;3.63;;
69629;SDS011;56857;52.212;5.496;2022-10-16T17:00:23;14.57;;;4.07;;
69629;SDS011;56857;52.212;5.496;2022-10-16T17:02:49;14.43;;;3.47;;
69629;SDS011;56857;52.212;5.496;2022-10-16T17:05:15;13.98;;;3.42;;